sensor_id;sensor_type;location;lat;lon;timestamp;temperature;humidity
15127;DHT22;7664;52.008;4.748;2022-08-19T00:02:19;20.20;99.90
15127;DHT22;7664;52.008;4.748;2022-08-19T00:04:47;20.10;99.90
15127;DHT22;7664;52.008;4.748;2022-08-19T00:07:21;20.10;99.90
15127;DHT22;7664;52.008;4.748;2022-08-19T00:09:49;20.10;99.90
15127;DHT22;7664;52.008;4.748;2022-08-19T00:12:18;20.10;99.90
15127;DHT22;7664;52.008;4.748;2022-08-19T00:14:46;20.10;99.90
15127;DHT22;7664;52.008;4.748;2022-08-19T00:17:14;20.10;99.90
15127;DHT22;7664;52.008;4.748;2022-08-19T00:19:43;20.10;99.90
15127;DHT22;7664;52.008;4.748;2022-08-19T00:22:11;20.10;99.90
15127;DHT22;7664;52.008;4.748;2022-08-19T00:24:44;20.00;99.90
15127;DHT22;7664;52.008;4.748;2022-08-19T00:27:16;20.00;99.90
15127;DHT22;7664;52.008;4.748;2022-08-19T00:29:52;20.00;99.90
15127;DHT22;7664;52.008;4.748;2022-08-19T00:32:20;20.00;99.90
15127;DHT22;7664;52.008;4.748;2022-08-19T00:34:49;20.00;99.90
15127;DHT22;7664;52.008;4.748;2022-08-19T00:37:19;20.00;99.90
15127;DHT22;7664;52.008;4.748;2022-08-19T00:39:50;20.00;99.90
15127;DHT22;7664;52.008;4.748;2022-08-19T00:42:20;19.90;99.90
15127;DHT22;7664;52.008;4.748;2022-08-19T00:44:51;19.90;99.90
15127;DHT22;7664;52.008;4.748;2022-08-19T00:47:19;19.90;99.90
15127;DHT22;7664;52.008;4.748;2022-08-19T00:49:57;19.90;99.90
15127;DHT22;7664;52.008;4.748;2022-08-19T00:52:34;19.90;99.90
15127;DHT22;7664;52.008;4.748;2022-08-19T00:55:08;19.80;99.90
15127;DHT22;7664;52.008;4.748;2022-08-19T00:57:40;19.80;99.90
15127;DHT22;7664;52.008;4.748;2022-08-19T01:00:13;19.80;99.90
15127;DHT22;7664;52.008;4.748;2022-08-19T01:02:44;19.70;99.90
15127;DHT22;7664;52.008;4.748;2022-08-19T01:05:16;19.70;99.90
15127;DHT22;7664;52.008;4.748;2022-08-19T01:07:49;19.70;99.90
15127;DHT22;7664;52.008;4.748;2022-08-19T01:10:23;19.70;99.90
15127;DHT22;7664;52.008;4.748;2022-08-19T01:12:54;19.70;99.90
15127;DHT22;7664;52.008;4.748;2022-08-19T01:15:27;19.70;99.90
15127;DHT22;7664;52.008;4.748;2022-08-19T01:18:00;19.70;99.90
15127;DHT22;7664;52.008;4.748;2022-08-19T01:20:28;19.70;99.90
15127;DHT22;7664;52.008;4.748;2022-08-19T01:23:00;19.70;99.90
15127;DHT22;7664;52.008;4.748;2022-08-19T01:25:35;19.70;99.90
15127;DHT22;7664;52.008;4.748;2022-08-19T01:28:05;19.60;99.90
15127;DHT22;7664;52.008;4.748;2022-08-19T01:30:37;19.80;99.90
15127;DHT22;7664;52.008;4.748;2022-08-19T01:33:10;19.60;99.90
15127;DHT22;7664;52.008;4.748;2022-08-19T01:35:39;19.60;99.90
15127;DHT22;7664;52.008;4.748;2022-08-19T01:38:18;19.60;99.90
15127;DHT22;7664;52.008;4.748;2022-08-19T01:40:50;19.50;99.90
15127;DHT22;7664;52.008;4.748;2022-08-19T01:43:19;19.40;99.90
15127;DHT22;7664;52.008;4.748;2022-08-19T01:45:47;19.40;99.90
15127;DHT22;7664;52.008;4.748;2022-08-19T01:48:16;19.40;99.90
15127;DHT22;7664;52.008;4.748;2022-08-19T01:50:44;19.40;99.90
15127;DHT22;7664;52.008;4.748;2022-08-19T01:53:15;19.40;99.90
15127;DHT22;7664;52.008;4.748;2022-08-19T01:55:44;19.40;99.90
15127;DHT22;7664;52.008;4.748;2022-08-19T01:58:17;19.40;99.90
15127;DHT22;7664;52.008;4.748;2022-08-19T02:00:47;19.40;99.90
15127;DHT22;7664;52.008;4.748;2022-08-19T02:03:17;19.40;99.90
15127;DHT22;7664;52.008;4.748;2022-08-19T02:05:45;19.40;99.90
15127;DHT22;7664;52.008;4.748;2022-08-19T02:08:18;19.40;99.90
15127;DHT22;7664;52.008;4.748;2022-08-19T02:10:46;19.30;99.90
15127;DHT22;7664;52.008;4.748;2022-08-19T02:13:19;19.30;99.90
15127;DHT22;7664;52.008;4.748;2022-08-19T02:15:52;19.30;99.90
15127;DHT22;7664;52.008;4.748;2022-08-19T02:18:20;19.30;99.90
15127;DHT22;7664;52.008;4.748;2022-08-19T02:20:53;19.30;99.90
15127;DHT22;7664;52.008;4.748;2022-08-19T02:23:23;19.30;99.90
15127;DHT22;7664;52.008;4.748;2022-08-19T02:25:51;19.30;99.90
15127;DHT22;7664;52.008;4.748;2022-08-19T02:28:20;19.20;99.90
15127;DHT22;7664;52.008;4.748;2022-08-19T02:30:49;19.20;99.90
15127;DHT22;7664;52.008;4.748;2022-08-19T02:33:17;19.20;99.90
15127;DHT22;7664;52.008;4.748;2022-08-19T02:35:46;19.30;99.90
15127;DHT22;7664;52.008;4.748;2022-08-19T02:38:14;19.20;99.90
15127;DHT22;7664;52.008;4.748;2022-08-19T02:40:59;19.20;99.90
15127;DHT22;7664;52.008;4.748;2022-08-19T02:43:30;19.20;99.90
15127;DHT22;7664;52.008;4.748;2022-08-19T02:46:00;19.10;99.90
15127;DHT22;7664;52.008;4.748;2022-08-19T02:48:29;19.10;99.90
15127;DHT22;7664;52.008;4.748;2022-08-19T02:50:59;19.10;99.90
15127;DHT22;7664;52.008;4.748;2022-08-19T02:53:27;19.10;99.90
15127;DHT22;7664;52.008;4.748;2022-08-19T02:56:00;19.20;99.90
15127;DHT22;7664;52.008;4.748;2022-08-19T02:58:29;19.10;99.90
15127;DHT22;7664;52.008;4.748;2022-08-19T03:01:00;19.10;99.90
15127;DHT22;7664;52.008;4.748;2022-08-19T03:03:28;19.10;99.90
15127;DHT22;7664;52.008;4.748;2022-08-19T03:06:08;19.10;99.90
15127;DHT22;7664;52.008;4.748;2022-08-19T03:08:37;19.10;99.90
15127;DHT22;7664;52.008;4.748;2022-08-19T03:11:13;19.00;99.90
15127;DHT22;7664;52.008;4.748;2022-08-19T03:13:41;19.00;99.90
15127;DHT22;7664;52.008;4.748;2022-08-19T03:16:10;19.00;99.90
15127;DHT22;7664;52.008;4.748;2022-08-19T03:18:45;19.00;99.90
15127;DHT22;7664;52.008;4.748;2022-08-19T03:21:16;19.00;99.90
15127;DHT22;7664;52.008;4.748;2022-08-19T03:23:44;19.00;99.90
15127;DHT22;7664;52.008;4.748;2022-08-19T03:26:14;18.90;99.90
15127;DHT22;7664;52.008;4.748;2022-08-19T03:28:45;19.00;99.90
15127;DHT22;7664;52.008;4.748;2022-08-19T03:31:20;18.90;99.90
15127;DHT22;7664;52.008;4.748;2022-08-19T03:34:14;18.90;99.90
15127;DHT22;7664;52.008;4.748;2022-08-19T03:36:47;18.90;99.90
15127;DHT22;7664;52.008;4.748;2022-08-19T03:39:15;18.90;99.90
15127;DHT22;7664;52.008;4.748;2022-08-19T03:41:48;18.90;99.90
15127;DHT22;7664;52.008;4.748;2022-08-19T03:44:37;18.80;99.90
15127;DHT22;7664;52.008;4.748;2022-08-19T03:47:05;18.80;99.90
15127;DHT22;7664;52.008;4.748;2022-08-19T03:49:34;18.80;99.90
15127;DHT22;7664;52.008;4.748;2022-08-19T03:52:04;18.90;99.90
15127;DHT22;7664;52.008;4.748;2022-08-19T03:54:35;18.80;99.90
15127;DHT22;7664;52.008;4.748;2022-08-19T03:57:06;18.80;99.90
15127;DHT22;7664;52.008;4.748;2022-08-19T03:59:37;18.90;99.90
15127;DHT22;7664;52.008;4.748;2022-08-19T04:02:11;18.80;99.90
15127;DHT22;7664;52.008;4.748;2022-08-19T04:04:41;18.80;99.90
15127;DHT22;7664;52.008;4.748;2022-08-19T04:07:14;18.90;99.90
15127;DHT22;7664;52.008;4.748;2022-08-19T04:09:45;18.80;99.90
15127;DHT22;7664;52.008;4.748;2022-08-19T04:12:14;18.80;99.90
15127;DHT22;7664;52.008;4.748;2022-08-19T04:14:45;18.80;99.90
15127;DHT22;7664;52.008;4.748;2022-08-19T04:17:13;18.70;99.90
15127;DHT22;7664;52.008;4.748;2022-08-19T04:19:41;18.80;99.90
15127;DHT22;7664;52.008;4.748;2022-08-19T04:22:10;18.80;99.90
15127;DHT22;7664;52.008;4.748;2022-08-19T04:24:39;18.80;99.90
15127;DHT22;7664;52.008;4.748;2022-08-19T04:27:07;18.80;99.90
15127;DHT22;7664;52.008;4.748;2022-08-19T04:29:37;18.80;99.90
15127;DHT22;7664;52.008;4.748;2022-08-19T04:32:06;18.80;99.90
15127;DHT22;7664;52.008;4.748;2022-08-19T04:34:36;18.80;99.90
15127;DHT22;7664;52.008;4.748;2022-08-19T04:37:24;18.80;99.90
15127;DHT22;7664;52.008;4.748;2022-08-19T04:40:03;18.80;99.90
15127;DHT22;7664;52.008;4.748;2022-08-19T04:42:49;18.80;99.90
15127;DHT22;7664;52.008;4.748;2022-08-19T04:45:20;18.80;99.90
15127;DHT22;7664;52.008;4.748;2022-08-19T04:47:49;18.80;99.90
15127;DHT22;7664;52.008;4.748;2022-08-19T04:50:24;18.90;99.90
15127;DHT22;7664;52.008;4.748;2022-08-19T04:52:52;18.80;99.90
15127;DHT22;7664;52.008;4.748;2022-08-19T04:55:22;18.80;99.90
15127;DHT22;7664;52.008;4.748;2022-08-19T04:57:52;18.80;99.90
15127;DHT22;7664;52.008;4.748;2022-08-19T05:00:25;18.80;99.90
15127;DHT22;7664;52.008;4.748;2022-08-19T05:02:53;18.90;99.90
15127;DHT22;7664;52.008;4.748;2022-08-19T05:05:21;18.90;99.90
15127;DHT22;7664;52.008;4.748;2022-08-19T05:07:53;18.90;99.90
15127;DHT22;7664;52.008;4.748;2022-08-19T05:10:22;19.00;99.90
15127;DHT22;7664;52.008;4.748;2022-08-19T05:12:50;19.00;99.90
15127;DHT22;7664;52.008;4.748;2022-08-19T05:15:19;19.00;99.90
15127;DHT22;7664;52.008;4.748;2022-08-19T05:17:49;19.10;99.90
15127;DHT22;7664;52.008;4.748;2022-08-19T05:20:37;19.20;99.90
15127;DHT22;7664;52.008;4.748;2022-08-19T05:23:23;19.20;99.90
15127;DHT22;7664;52.008;4.748;2022-08-19T05:25:51;19.20;99.90
15127;DHT22;7664;52.008;4.748;2022-08-19T05:28:22;19.20;99.90
15127;DHT22;7664;52.008;4.748;2022-08-19T05:30:50;19.30;99.90
15127;DHT22;7664;52.008;4.748;2022-08-19T05:33:19;19.30;99.90
15127;DHT22;7664;52.008;4.748;2022-08-19T05:35:48;19.40;99.90
15127;DHT22;7664;52.008;4.748;2022-08-19T05:38:17;19.40;99.90
15127;DHT22;7664;52.008;4.748;2022-08-19T05:40:45;19.50;99.90
15127;DHT22;7664;52.008;4.748;2022-08-19T05:43:15;19.60;99.90
15127;DHT22;7664;52.008;4.748;2022-08-19T05:45:47;19.60;99.90
15127;DHT22;7664;52.008;4.748;2022-08-19T05:48:19;19.60;99.90
15127;DHT22;7664;52.008;4.748;2022-08-19T05:50:47;19.70;99.90
15127;DHT22;7664;52.008;4.748;2022-08-19T05:53:17;19.80;99.90
15127;DHT22;7664;52.008;4.748;2022-08-19T05:55:47;19.80;99.90
15127;DHT22;7664;52.008;4.748;2022-08-19T05:58:16;19.90;99.90
15127;DHT22;7664;52.008;4.748;2022-08-19T06:00:51;19.90;99.90
15127;DHT22;7664;52.008;4.748;2022-08-19T06:03:22;20.00;99.90
15127;DHT22;7664;52.008;4.748;2022-08-19T06:05:51;20.10;99.90
15127;DHT22;7664;52.008;4.748;2022-08-19T06:08:20;20.10;99.90
15127;DHT22;7664;52.008;4.748;2022-08-19T06:11:14;20.20;99.90
15127;DHT22;7664;52.008;4.748;2022-08-19T06:13:43;20.30;99.90
15127;DHT22;7664;52.008;4.748;2022-08-19T06:16:27;20.40;99.90
15127;DHT22;7664;52.008;4.748;2022-08-19T06:19:03;20.50;99.90
15127;DHT22;7664;52.008;4.748;2022-08-19T06:21:35;20.60;99.90
15127;DHT22;7664;52.008;4.748;2022-08-19T06:24:05;20.80;99.90
15127;DHT22;7664;52.008;4.748;2022-08-19T06:26:35;21.20;99.90
15127;DHT22;7664;52.008;4.748;2022-08-19T06:29:04;21.90;99.90
15127;DHT22;7664;52.008;4.748;2022-08-19T06:31:34;22.60;99.90
15127;DHT22;7664;52.008;4.748;2022-08-19T06:34:08;23.30;99.90
15127;DHT22;7664;52.008;4.748;2022-08-19T06:36:40;23.70;99.90
15127;DHT22;7664;52.008;4.748;2022-08-19T06:39:12;24.20;99.90
15127;DHT22;7664;52.008;4.748;2022-08-19T06:41:42;24.40;99.90
15127;DHT22;7664;52.008;4.748;2022-08-19T06:44:18;24.70;99.90
15127;DHT22;7664;52.008;4.748;2022-08-19T06:46:50;24.90;99.90
15127;DHT22;7664;52.008;4.748;2022-08-19T06:49:22;25.30;99.90
15127;DHT22;7664;52.008;4.748;2022-08-19T06:51:50;25.70;99.90
15127;DHT22;7664;52.008;4.748;2022-08-19T06:54:19;26.20;99.90
15127;DHT22;7664;52.008;4.748;2022-08-19T06:56:47;26.50;99.90
15127;DHT22;7664;52.008;4.748;2022-08-19T06:59:18;26.60;99.90
15127;DHT22;7664;52.008;4.748;2022-08-19T07:01:48;26.70;99.90
15127;DHT22;7664;52.008;4.748;2022-08-19T07:04:19;26.70;99.90
15127;DHT22;7664;52.008;4.748;2022-08-19T07:06:57;26.60;99.90
15127;DHT22;7664;52.008;4.748;2022-08-19T07:09:45;26.60;99.90
15127;DHT22;7664;52.008;4.748;2022-08-19T07:12:27;26.50;99.90
15127;DHT22;7664;52.008;4.748;2022-08-19T07:15:00;26.60;99.90
15127;DHT22;7664;52.008;4.748;2022-08-19T07:17:29;26.70;99.90
15127;DHT22;7664;52.008;4.748;2022-08-19T07:20:00;26.70;99.90
15127;DHT22;7664;52.008;4.748;2022-08-19T07:22:37;26.60;99.90
15127;DHT22;7664;52.008;4.748;2022-08-19T07:25:06;26.40;99.90
15127;DHT22;7664;52.008;4.748;2022-08-19T07:27:40;26.10;99.90
15127;DHT22;7664;52.008;4.748;2022-08-19T07:30:12;25.90;99.90
15127;DHT22;7664;52.008;4.748;2022-08-19T07:32:40;25.60;99.90
15127;DHT22;7664;52.008;4.748;2022-08-19T07:35:09;25.40;99.90
15127;DHT22;7664;52.008;4.748;2022-08-19T07:37:40;25.30;99.90
15127;DHT22;7664;52.008;4.748;2022-08-19T07:40:11;25.10;99.90
15127;DHT22;7664;52.008;4.748;2022-08-19T07:42:39;25.20;99.90
15127;DHT22;7664;52.008;4.748;2022-08-19T07:45:08;25.80;99.90
15127;DHT22;7664;52.008;4.748;2022-08-19T07:47:39;26.40;99.90
15127;DHT22;7664;52.008;4.748;2022-08-19T07:50:17;27.10;99.90
15127;DHT22;7664;52.008;4.748;2022-08-19T07:52:48;27.30;99.90
15127;DHT22;7664;52.008;4.748;2022-08-19T07:55:23;27.20;99.90
15127;DHT22;7664;52.008;4.748;2022-08-19T07:58:06;27.20;99.90
15127;DHT22;7664;52.008;4.748;2022-08-19T08:00:37;27.30;99.90
15127;DHT22;7664;52.008;4.748;2022-08-19T08:03:12;27.30;99.90
15127;DHT22;7664;52.008;4.748;2022-08-19T08:05:41;27.60;99.90
15127;DHT22;7664;52.008;4.748;2022-08-19T08:08:30;27.70;99.90
15127;DHT22;7664;52.008;4.748;2022-08-19T08:11:20;27.30;99.90
15127;DHT22;7664;52.008;4.748;2022-08-19T08:13:49;27.10;99.90
15127;DHT22;7664;52.008;4.748;2022-08-19T08:16:32;26.90;99.90
15127;DHT22;7664;52.008;4.748;2022-08-19T08:19:05;26.70;99.90
15127;DHT22;7664;52.008;4.748;2022-08-19T08:21:51;26.40;99.90
15127;DHT22;7664;52.008;4.748;2022-08-19T08:24:23;26.20;99.90
15127;DHT22;7664;52.008;4.748;2022-08-19T08:26:54;26.10;99.90
15127;DHT22;7664;52.008;4.748;2022-08-19T08:29:23;25.90;99.90
15127;DHT22;7664;52.008;4.748;2022-08-19T08:32:00;26.00;99.90
15127;DHT22;7664;52.008;4.748;2022-08-19T08:34:29;25.80;99.90
15127;DHT22;7664;52.008;4.748;2022-08-19T08:36:57;25.70;99.90
15127;DHT22;7664;52.008;4.748;2022-08-19T08:39:27;25.50;99.90
15127;DHT22;7664;52.008;4.748;2022-08-19T08:42:01;25.40;99.90
15127;DHT22;7664;52.008;4.748;2022-08-19T08:44:48;25.20;99.90
15127;DHT22;7664;52.008;4.748;2022-08-19T08:47:34;25.20;99.90
15127;DHT22;7664;52.008;4.748;2022-08-19T08:50:10;25.10;99.90
15127;DHT22;7664;52.008;4.748;2022-08-19T08:52:45;25.00;99.90
15127;DHT22;7664;52.008;4.748;2022-08-19T08:55:26;25.00;99.90
15127;DHT22;7664;52.008;4.748;2022-08-19T08:58:04;24.90;99.90
15127;DHT22;7664;52.008;4.748;2022-08-19T09:00:43;24.90;99.90
15127;DHT22;7664;52.008;4.748;2022-08-19T09:03:17;24.90;99.90
15127;DHT22;7664;52.008;4.748;2022-08-19T09:05:56;25.00;99.90
15127;DHT22;7664;52.008;4.748;2022-08-19T09:08:43;24.90;99.90
15127;DHT22;7664;52.008;4.748;2022-08-19T09:11:23;25.00;99.90
15127;DHT22;7664;52.008;4.748;2022-08-19T09:14:15;25.00;99.90
15127;DHT22;7664;52.008;4.748;2022-08-19T09:17:07;24.90;99.90
15127;DHT22;7664;52.008;4.748;2022-08-19T09:19:51;25.00;99.90
15127;DHT22;7664;52.008;4.748;2022-08-19T09:22:20;25.20;99.90
15127;DHT22;7664;52.008;4.748;2022-08-19T09:24:52;25.30;99.90
15127;DHT22;7664;52.008;4.748;2022-08-19T09:27:24;25.40;99.90
15127;DHT22;7664;52.008;4.748;2022-08-19T09:30:18;25.50;99.90
15127;DHT22;7664;52.008;4.748;2022-08-19T09:32:51;25.80;99.90
15127;DHT22;7664;52.008;4.748;2022-08-19T09:35:22;25.90;99.90
15127;DHT22;7664;52.008;4.748;2022-08-19T09:37:51;26.10;99.90
15127;DHT22;7664;52.008;4.748;2022-08-19T09:40:26;26.20;99.90
15127;DHT22;7664;52.008;4.748;2022-08-19T09:42:58;26.20;99.90
15127;DHT22;7664;52.008;4.748;2022-08-19T09:45:42;26.30;99.90
15127;DHT22;7664;52.008;4.748;2022-08-19T09:48:10;26.40;99.90
15127;DHT22;7664;52.008;4.748;2022-08-19T09:50:49;26.30;99.90
15127;DHT22;7664;52.008;4.748;2022-08-19T09:53:18;26.40;99.90
15127;DHT22;7664;52.008;4.748;2022-08-19T09:55:51;26.40;99.90
15127;DHT22;7664;52.008;4.748;2022-08-19T09:58:23;26.50;99.90
15127;DHT22;7664;52.008;4.748;2022-08-19T10:00:54;26.70;99.90
15127;DHT22;7664;52.008;4.748;2022-08-19T10:03:23;26.90;99.90
15127;DHT22;7664;52.008;4.748;2022-08-19T10:06:00;27.00;99.90
15127;DHT22;7664;52.008;4.748;2022-08-19T10:08:43;27.00;99.90
15127;DHT22;7664;52.008;4.748;2022-08-19T10:11:17;27.10;99.90
15127;DHT22;7664;52.008;4.748;2022-08-19T10:14:04;27.00;99.90
15127;DHT22;7664;52.008;4.748;2022-08-19T10:16:34;26.90;99.90
15127;DHT22;7664;52.008;4.748;2022-08-19T10:19:12;26.70;99.90
15127;DHT22;7664;52.008;4.748;2022-08-19T10:21:52;26.50;99.90
15127;DHT22;7664;52.008;4.748;2022-08-19T10:24:26;26.40;99.90
15127;DHT22;7664;52.008;4.748;2022-08-19T10:26:55;26.30;99.90
15127;DHT22;7664;52.008;4.748;2022-08-19T10:29:27;26.10;99.90
15127;DHT22;7664;52.008;4.748;2022-08-19T10:32:00;26.10;99.90
15127;DHT22;7664;52.008;4.748;2022-08-19T10:34:30;25.90;99.90
15127;DHT22;7664;52.008;4.748;2022-08-19T10:37:14;25.80;99.90
15127;DHT22;7664;52.008;4.748;2022-08-19T10:39:54;25.70;99.90
15127;DHT22;7664;52.008;4.748;2022-08-19T10:42:22;25.70;99.90
15127;DHT22;7664;52.008;4.748;2022-08-19T10:45:04;25.50;99.90
15127;DHT22;7664;52.008;4.748;2022-08-19T10:47:49;25.50;99.90
15127;DHT22;7664;52.008;4.748;2022-08-19T10:50:17;25.60;99.90
15127;DHT22;7664;52.008;4.748;2022-08-19T10:53:04;25.50;99.90
15127;DHT22;7664;52.008;4.748;2022-08-19T10:55:36;25.60;99.90
15127;DHT22;7664;52.008;4.748;2022-08-19T10:58:25;25.70;99.90
15127;DHT22;7664;52.008;4.748;2022-08-19T11:00:57;25.70;99.90
15127;DHT22;7664;52.008;4.748;2022-08-19T11:03:26;25.90;99.90
15127;DHT22;7664;52.008;4.748;2022-08-19T11:06:08;26.00;99.90
15127;DHT22;7664;52.008;4.748;2022-08-19T11:08:37;26.10;99.90
15127;DHT22;7664;52.008;4.748;2022-08-19T11:11:11;26.10;99.90
15127;DHT22;7664;52.008;4.748;2022-08-19T11:13:41;26.10;99.90
15127;DHT22;7664;52.008;4.748;2022-08-19T11:16:13;26.20;99.90
15127;DHT22;7664;52.008;4.748;2022-08-19T11:18:55;26.20;99.90
15127;DHT22;7664;52.008;4.748;2022-08-19T11:21:26;26.30;99.90
15127;DHT22;7664;52.008;4.748;2022-08-19T11:24:01;26.40;99.90
15127;DHT22;7664;52.008;4.748;2022-08-19T11:26:33;26.50;99.90
15127;DHT22;7664;52.008;4.748;2022-08-19T11:29:12;26.50;99.90
15127;DHT22;7664;52.008;4.748;2022-08-19T11:31:46;26.50;99.90
15127;DHT22;7664;52.008;4.748;2022-08-19T11:34:17;26.50;99.90
15127;DHT22;7664;52.008;4.748;2022-08-19T11:36:50;26.50;99.90
15127;DHT22;7664;52.008;4.748;2022-08-19T11:39:29;26.40;99.90
15127;DHT22;7664;52.008;4.748;2022-08-19T11:42:00;26.20;99.90
15127;DHT22;7664;52.008;4.748;2022-08-19T11:44:32;26.10;99.90
15127;DHT22;7664;52.008;4.748;2022-08-19T11:47:11;25.80;99.90
15127;DHT22;7664;52.008;4.748;2022-08-19T11:52:31;25.40;99.90
15127;DHT22;7664;52.008;4.748;2022-08-19T11:55:00;25.30;99.90
15127;DHT22;7664;52.008;4.748;2022-08-19T11:57:28;25.20;99.90
15127;DHT22;7664;52.008;4.748;2022-08-19T11:59:56;25.00;99.90
15127;DHT22;7664;52.008;4.748;2022-08-19T12:02:26;25.00;99.90
15127;DHT22;7664;52.008;4.748;2022-08-19T12:04:54;25.10;99.90
15127;DHT22;7664;52.008;4.748;2022-08-19T12:07:25;25.30;99.90
15127;DHT22;7664;52.008;4.748;2022-08-19T12:09:56;25.40;99.90
15127;DHT22;7664;52.008;4.748;2022-08-19T12:12:29;25.60;99.90
15127;DHT22;7664;52.008;4.748;2022-08-19T12:14:57;25.60;99.90
15127;DHT22;7664;52.008;4.748;2022-08-19T12:17:29;25.70;99.90
15127;DHT22;7664;52.008;4.748;2022-08-19T12:19:57;25.80;99.90
15127;DHT22;7664;52.008;4.748;2022-08-19T12:22:25;25.90;99.90
15127;DHT22;7664;52.008;4.748;2022-08-19T12:24:57;26.10;99.90
15127;DHT22;7664;52.008;4.748;2022-08-19T12:27:32;26.30;99.90
15127;DHT22;7664;52.008;4.748;2022-08-19T12:30:10;26.30;99.90
15127;DHT22;7664;52.008;4.748;2022-08-19T12:32:51;26.30;99.90
15127;DHT22;7664;52.008;4.748;2022-08-19T12:35:27;26.30;99.90
15127;DHT22;7664;52.008;4.748;2022-08-19T12:37:59;26.20;99.90
15127;DHT22;7664;52.008;4.748;2022-08-19T12:40:38;26.10;99.90
15127;DHT22;7664;52.008;4.748;2022-08-19T12:43:14;26.00;99.90
15127;DHT22;7664;52.008;4.748;2022-08-19T12:45:46;25.90;99.90
15127;DHT22;7664;52.008;4.748;2022-08-19T12:48:16;25.90;99.90
15127;DHT22;7664;52.008;4.748;2022-08-19T12:51:01;25.90;99.90
15127;DHT22;7664;52.008;4.748;2022-08-19T12:53:33;25.90;99.90
15127;DHT22;7664;52.008;4.748;2022-08-19T12:56:06;25.90;99.90
15127;DHT22;7664;52.008;4.748;2022-08-19T12:58:38;25.90;99.90
15127;DHT22;7664;52.008;4.748;2022-08-19T13:01:17;25.90;99.90
15127;DHT22;7664;52.008;4.748;2022-08-19T13:04:06;25.80;99.90
15127;DHT22;7664;52.008;4.748;2022-08-19T13:06:37;25.80;99.90
15127;DHT22;7664;52.008;4.748;2022-08-19T13:09:11;25.80;99.90
15127;DHT22;7664;52.008;4.748;2022-08-19T13:11:47;25.70;99.90
15127;DHT22;7664;52.008;4.748;2022-08-19T13:14:20;25.60;99.90
15127;DHT22;7664;52.008;4.748;2022-08-19T13:16:51;25.60;99.90
15127;DHT22;7664;52.008;4.748;2022-08-19T13:19:25;25.60;99.90
15127;DHT22;7664;52.008;4.748;2022-08-19T13:21:54;25.50;99.90
15127;DHT22;7664;52.008;4.748;2022-08-19T13:24:28;25.60;99.90
15127;DHT22;7664;52.008;4.748;2022-08-19T13:26:59;25.60;99.90
15127;DHT22;7664;52.008;4.748;2022-08-19T13:29:39;25.60;99.90
15127;DHT22;7664;52.008;4.748;2022-08-19T13:32:25;25.70;99.90
15127;DHT22;7664;52.008;4.748;2022-08-19T13:35:12;25.70;99.90
15127;DHT22;7664;52.008;4.748;2022-08-19T13:37:42;25.60;99.90
15127;DHT22;7664;52.008;4.748;2022-08-19T13:40:24;25.60;99.90
15127;DHT22;7664;52.008;4.748;2022-08-19T13:42:54;25.70;99.90
15127;DHT22;7664;52.008;4.748;2022-08-19T13:45:25;25.70;99.90
15127;DHT22;7664;52.008;4.748;2022-08-19T13:48:07;25.70;99.90
15127;DHT22;7664;52.008;4.748;2022-08-19T13:50:51;25.80;99.90
15127;DHT22;7664;52.008;4.748;2022-08-19T13:53:31;25.80;99.90
15127;DHT22;7664;52.008;4.748;2022-08-19T13:56:00;25.80;99.90
15127;DHT22;7664;52.008;4.748;2022-08-19T13:58:36;25.80;99.90
15127;DHT22;7664;52.008;4.748;2022-08-19T14:01:24;25.70;99.90
15127;DHT22;7664;52.008;4.748;2022-08-19T14:03:53;25.70;99.90
15127;DHT22;7664;52.008;4.748;2022-08-19T14:06:26;25.60;99.90
15127;DHT22;7664;52.008;4.748;2022-08-19T14:08:55;25.50;99.90
15127;DHT22;7664;52.008;4.748;2022-08-19T14:11:25;25.40;99.90
15127;DHT22;7664;52.008;4.748;2022-08-19T14:14:03;25.30;99.90
15127;DHT22;7664;52.008;4.748;2022-08-19T14:16:32;25.20;99.90
15127;DHT22;7664;52.008;4.748;2022-08-19T14:19:03;25.10;99.90
15127;DHT22;7664;52.008;4.748;2022-08-19T14:21:35;25.10;99.90
15127;DHT22;7664;52.008;4.748;2022-08-19T14:24:07;25.00;99.90
15127;DHT22;7664;52.008;4.748;2022-08-19T14:26:50;25.00;99.90
15127;DHT22;7664;52.008;4.748;2022-08-19T14:29:19;24.80;99.90
15127;DHT22;7664;52.008;4.748;2022-08-19T14:31:49;24.80;99.90
15127;DHT22;7664;52.008;4.748;2022-08-19T14:34:26;24.70;99.90
15127;DHT22;7664;52.008;4.748;2022-08-19T14:36:56;24.60;99.90
15127;DHT22;7664;52.008;4.748;2022-08-19T14:39:40;24.50;99.90
15127;DHT22;7664;52.008;4.748;2022-08-19T14:42:11;24.50;99.90
15127;DHT22;7664;52.008;4.748;2022-08-19T14:44:46;24.50;99.90
15127;DHT22;7664;52.008;4.748;2022-08-19T14:47:20;24.60;99.90
15127;DHT22;7664;52.008;4.748;2022-08-19T14:49:58;24.60;99.90
15127;DHT22;7664;52.008;4.748;2022-08-19T14:52:32;24.50;99.90
15127;DHT22;7664;52.008;4.748;2022-08-19T14:55:03;24.40;99.90
15127;DHT22;7664;52.008;4.748;2022-08-19T14:57:33;24.40;99.90
15127;DHT22;7664;52.008;4.748;2022-08-19T15:00:25;24.40;99.90
15127;DHT22;7664;52.008;4.748;2022-08-19T15:02:56;24.40;99.90
15127;DHT22;7664;52.008;4.748;2022-08-19T15:05:29;24.40;99.90
15127;DHT22;7664;52.008;4.748;2022-08-19T15:08:02;24.40;99.90
15127;DHT22;7664;52.008;4.748;2022-08-19T15:10:37;24.60;99.90
15127;DHT22;7664;52.008;4.748;2022-08-19T15:13:11;24.60;99.90
15127;DHT22;7664;52.008;4.748;2022-08-19T15:15:39;24.80;99.90
15127;DHT22;7664;52.008;4.748;2022-08-19T15:18:14;24.90;99.90
15127;DHT22;7664;52.008;4.748;2022-08-19T15:20:45;24.90;99.90
15127;DHT22;7664;52.008;4.748;2022-08-19T15:23:20;24.90;99.90
15127;DHT22;7664;52.008;4.748;2022-08-19T15:25:49;25.00;99.90
15127;DHT22;7664;52.008;4.748;2022-08-19T15:28:20;25.00;99.90
15127;DHT22;7664;52.008;4.748;2022-08-19T15:30:52;25.00;99.90
15127;DHT22;7664;52.008;4.748;2022-08-19T15:33:25;24.90;99.90
15127;DHT22;7664;52.008;4.748;2022-08-19T15:35:53;24.80;99.90
15127;DHT22;7664;52.008;4.748;2022-08-19T15:38:38;24.70;99.90
15127;DHT22;7664;52.008;4.748;2022-08-19T15:41:20;24.60;99.90
15127;DHT22;7664;52.008;4.748;2022-08-19T15:44:02;24.60;99.90
15127;DHT22;7664;52.008;4.748;2022-08-19T15:46:35;24.50;99.90
15127;DHT22;7664;52.008;4.748;2022-08-19T15:49:04;24.40;99.90
15127;DHT22;7664;52.008;4.748;2022-08-19T15:51:39;24.40;99.90
15127;DHT22;7664;52.008;4.748;2022-08-19T15:54:19;24.40;99.90
15127;DHT22;7664;52.008;4.748;2022-08-19T15:56:49;24.30;99.90
15127;DHT22;7664;52.008;4.748;2022-08-19T15:59:39;24.20;99.90
15127;DHT22;7664;52.008;4.748;2022-08-19T16:02:29;24.10;99.90
15127;DHT22;7664;52.008;4.748;2022-08-19T16:05:23;24.00;99.90
15127;DHT22;7664;52.008;4.748;2022-08-19T16:08:10;23.90;99.90
15127;DHT22;7664;52.008;4.748;2022-08-19T16:10:42;23.80;99.90
15127;DHT22;7664;52.008;4.748;2022-08-19T16:13:12;23.60;99.90
15127;DHT22;7664;52.008;4.748;2022-08-19T16:15:43;23.50;99.90
15127;DHT22;7664;52.008;4.748;2022-08-19T16:18:11;23.40;99.90
15127;DHT22;7664;52.008;4.748;2022-08-19T16:20:55;23.40;99.90
15127;DHT22;7664;52.008;4.748;2022-08-19T16:23:28;23.30;99.90
15127;DHT22;7664;52.008;4.748;2022-08-19T16:25:59;23.20;99.90
15127;DHT22;7664;52.008;4.748;2022-08-19T16:28:30;23.20;99.90